createdAt,value
2023-04-19T00:00:42.479Z,20.10
2023-04-19T00:03:10.364Z,19.15
2023-04-19T00:05:37.119Z,18.58
2023-04-19T00:08:04.326Z,19.52
2023-04-19T00:10:30.931Z,18.35
2023-04-19T00:12:57.503Z,18.83
2023-04-19T00:15:24.021Z,19.65
2023-04-19T00:17:50.572Z,16.25
2023-04-19T00:20:17.087Z,16.27
2023-04-19T00:22:43.605Z,21.10
2023-04-19T00:25:10.206Z,18.85
2023-04-19T00:27:36.691Z,16.23
2023-04-19T00:30:03.357Z,19.20
2023-04-19T00:32:29.921Z,18.20
2023-04-19T00:34:56.487Z,17.40
2023-04-19T00:37:23.062Z,18.55
2023-04-19T00:39:49.539Z,20.17
2023-04-19T00:42:16.065Z,16.70
2023-04-19T00:44:42.622Z,18.85
2023-04-19T00:47:09.237Z,18.38
2023-04-19T00:49:37.195Z,19.30
2023-04-19T00:52:03.899Z,20.70
2023-04-19T00:54:30.795Z,19.73
2023-04-19T00:56:57.318Z,20.83
2023-04-19T00:59:25.008Z,17.75
2023-04-19T01:01:51.792Z,18.65
2023-04-19T01:04:18.711Z,21.40
2023-04-19T01:06:45.776Z,18.42
2023-04-19T01:09:12.389Z,20.70
2023-04-19T01:11:39.114Z,17.23
2023-04-19T01:14:06.428Z,20.42
2023-04-19T01:16:33.038Z,21.77
2023-04-19T01:18:59.618Z,21.23
2023-04-19T01:21:26.131Z,20.30
2023-04-19T01:23:52.673Z,21.48
2023-04-19T01:26:20.956Z,20.55
2023-04-19T01:28:47.469Z,20.33
2023-04-19T01:31:14.025Z,23.35
2023-04-19T01:33:40.546Z,18.08
2023-04-19T01:36:07.575Z,17.80
2023-04-19T01:38:34.161Z,20.30
2023-04-19T01:41:00.669Z,17.90
2023-04-19T01:43:27.149Z,21.52
2023-04-19T01:45:53.704Z,18.92
2023-04-19T01:48:20.187Z,20.08
2023-04-19T01:50:46.722Z,19.30
2023-04-19T01:53:13.346Z,24.98
2023-04-19T01:55:39.859Z,18.42
2023-04-19T01:58:06.355Z,19.35
2023-04-19T02:00:32.935Z,22.52
2023-04-19T02:02:59.564Z,20.77
2023-04-19T02:05:26.166Z,20.45
2023-04-19T02:07:52.693Z,19.15
2023-04-19T02:10:19.233Z,16.80
2023-04-19T02:12:45.790Z,24.20
2023-04-19T02:15:12.357Z,23.83
2023-04-19T02:17:39.032Z,22.55
2023-04-19T02:20:06.505Z,22.05
2023-04-19T02:22:33.010Z,23.88
2023-04-19T02:24:59.506Z,25.30
2023-04-19T02:27:26.031Z,21.23
2023-04-19T02:29:52.561Z,20.90
2023-04-19T02:32:19.082Z,22.02
2023-04-19T02:34:45.609Z,27.08
2023-04-19T02:37:12.098Z,22.75
2023-04-19T02:39:38.559Z,21.58
2023-04-19T02:42:05.736Z,21.70
2023-04-19T02:44:32.242Z,22.45
2023-04-19T02:46:58.754Z,20.98
2023-04-19T02:49:25.244Z,19.80
2023-04-19T02:51:51.762Z,20.20
2023-04-19T02:54:18.419Z,20.98
2023-04-19T02:56:44.886Z,23.90
2023-04-19T02:59:11.407Z,21.40
2023-04-19T03:01:38.054Z,23.98
2023-04-19T03:04:04.822Z,23.05
2023-04-19T03:06:31.331Z,23.40
2023-04-19T03:08:57.874Z,19.75
2023-04-19T03:11:24.376Z,19.33
2023-04-19T03:13:50.850Z,19.85
2023-04-19T03:16:17.660Z,21.00
2023-04-19T03:18:44.686Z,20.58
2023-04-19T03:21:12.327Z,24.10
2023-04-19T03:23:38.844Z,25.13
2023-04-19T03:26:05.422Z,22.65
2023-04-19T03:28:31.944Z,20.85
2023-04-19T03:30:58.446Z,23.30
2023-04-19T03:33:25.004Z,19.55
2023-04-19T03:35:51.505Z,21.48
2023-04-19T03:38:17.993Z,21.80
2023-04-19T03:40:44.504Z,25.05
2023-04-19T03:43:10.979Z,24.80
2023-04-19T03:45:37.437Z,22.98
2023-04-19T03:48:04.100Z,18.70
2023-04-19T03:50:30.606Z,19.00
2023-04-19T03:52:57.092Z,21.00
2023-04-19T03:55:23.634Z,20.88
2023-04-19T03:57:50.113Z,18.98
2023-04-19T04:00:16.927Z,19.13
2023-04-19T04:02:43.600Z,22.77
2023-04-19T04:05:10.289Z,19.60
2023-04-19T04:07:36.898Z,17.90
2023-04-19T04:10:03.670Z,18.85
2023-04-19T04:12:30.230Z,18.08
2023-04-19T04:14:56.738Z,20.02
2023-04-19T04:17:23.301Z,20.40
2023-04-19T04:19:49.998Z,19.08
2023-04-19T04:22:17.042Z,20.67
2023-04-19T04:24:43.774Z,21.60
2023-04-19T04:27:11.053Z,17.88
2023-04-19T04:29:38.334Z,20.80
2023-04-19T04:32:07.388Z,16.98
2023-04-19T04:34:34.422Z,18.80
2023-04-19T04:37:01.149Z,19.25
2023-04-19T04:39:28.622Z,21.27
2023-04-19T04:41:55.404Z,20.52
2023-04-19T04:44:21.932Z,19.63
2023-04-19T04:46:48.449Z,19.13
2023-04-19T04:49:15.100Z,24.10
2023-04-19T04:51:41.672Z,22.67
2023-04-19T04:54:08.194Z,21.50
2023-04-19T04:56:34.846Z,21.67
2023-04-19T04:59:01.367Z,21.52
2023-04-19T05:01:27.930Z,18.42
2023-04-19T05:03:54.433Z,19.35
2023-04-19T05:06:20.961Z,19.83
2023-04-19T05:08:47.453Z,19.58
2023-04-19T05:11:14.318Z,21.60
2023-04-19T05:13:40.845Z,21.48
2023-04-19T05:16:07.465Z,17.60
2023-04-19T05:18:34.111Z,19.27
2023-04-19T05:21:00.625Z,19.42
2023-04-19T05:23:27.138Z,19.33
2023-04-19T05:25:53.615Z,19.92
2023-04-19T05:28:20.141Z,18.83
2023-04-19T05:30:46.810Z,17.35
2023-04-19T05:33:13.317Z,18.40
2023-04-19T05:35:39.791Z,16.88
2023-04-19T05:38:06.316Z,17.63
2023-04-19T05:40:32.927Z,19.52
2023-04-19T05:42:59.400Z,18.83
2023-04-19T05:45:26.354Z,18.02
2023-04-19T05:47:52.966Z,17.73
2023-04-19T05:50:19.730Z,18.02
2023-04-19T05:52:46.395Z,18.02
2023-04-19T05:55:12.955Z,18.42
2023-04-19T05:57:39.535Z,16.90
2023-04-19T06:00:06.769Z,17.05
2023-04-19T06:02:33.450Z,19.02
2023-04-19T06:05:02.627Z,16.15
2023-04-19T06:07:40.158Z,17.95
2023-04-19T06:10:10.510Z,16.73
2023-04-19T06:12:37.075Z,16.70
2023-04-19T06:15:03.909Z,14.10
2023-04-19T06:17:30.479Z,16.00
2023-04-19T06:19:57.050Z,15.98
2023-04-19T06:22:23.553Z,14.75
2023-04-19T06:24:50.128Z,13.60
2023-04-19T06:27:17.129Z,15.60
2023-04-19T06:29:43.869Z,17.20
2023-04-19T06:32:10.904Z,13.93
2023-04-19T06:34:37.490Z,13.23
2023-04-19T06:37:04.114Z,10.98
2023-04-19T07:21:33.334Z,10.38
2023-04-19T07:24:00.015Z,7.15
2023-04-19T07:26:26.595Z,9.63
2023-04-19T07:50:05.879Z,13.20
2023-04-19T07:58:41.485Z,9.98
2023-04-19T08:01:08.480Z,9.88
2023-04-19T08:03:56.397Z,9.63
2023-04-19T08:06:32.256Z,9.25
2023-04-19T08:09:04.030Z,11.27
2023-04-19T08:18:17.667Z,9.95
2023-04-19T08:21:31.342Z,7.93
2023-04-19T08:24:32.249Z,7.85
2023-04-19T08:30:50.710Z,12.65
2023-04-19T08:33:26.361Z,9.10
2023-04-19T08:35:59.138Z,8.57
2023-04-19T08:38:25.778Z,10.27
2023-04-19T08:40:55.166Z,9.23
2023-04-19T08:43:28.632Z,10.98
2023-04-19T08:45:58.644Z,9.05
2023-04-19T08:48:26.824Z,11.93
2023-04-19T08:51:04.887Z,9.10
2023-04-19T08:53:34.360Z,9.20
2023-04-19T09:01:07.129Z,9.63
2023-04-19T09:03:43.963Z,10.25
2023-04-19T09:06:18.144Z,9.88
2023-04-19T09:14:16.920Z,9.27
2023-04-19T09:16:52.286Z,9.60
2023-04-19T09:19:24.629Z,8.65
2023-04-19T09:21:55.301Z,8.27
2023-04-19T09:27:11.337Z,8.82
2023-04-19T09:29:39.081Z,10.75
2023-04-19T10:35:56.652Z,6.32
2023-04-19T10:38:39.378Z,6.60
2023-04-19T10:41:06.782Z,10.25
2023-04-19T10:43:34.267Z,6.72
2023-04-19T10:46:06.745Z,7.68
2023-04-19T10:48:38.509Z,7.15
2023-04-19T10:51:13.315Z,9.73
2023-04-19T10:53:50.044Z,7.53
2023-04-19T10:56:34.682Z,6.15
2023-04-19T10:59:01.219Z,8.35
2023-04-19T11:01:40.788Z,10.30
2023-04-19T11:04:09.266Z,9.20
2023-04-19T11:06:37.427Z,6.72
2023-04-19T11:09:06.561Z,7.43
2023-04-19T11:11:36.673Z,8.25
2023-04-19T11:14:03.867Z,6.43
2023-04-19T11:16:42.336Z,8.77
2023-04-19T11:19:19.369Z,6.10
2023-04-19T11:21:47.308Z,6.72
2023-04-19T11:24:14.766Z,8.95
2023-04-19T11:26:44.314Z,7.70
2023-04-19T11:31:37.588Z,5.80
2023-04-19T11:34:04.617Z,7.38
2023-04-19T11:36:31.779Z,5.78
2023-04-19T11:38:58.703Z,7.18
2023-04-19T11:41:25.266Z,7.72
2023-04-19T11:43:52.111Z,6.15
2023-04-19T11:46:18.814Z,8.52
2023-04-19T11:48:53.090Z,6.15
2023-04-19T11:51:20.654Z,9.23
2023-04-19T11:53:48.019Z,6.07
2023-04-19T11:56:15.824Z,10.23
2023-04-19T12:01:53.135Z,5.63
2023-04-19T12:04:28.000Z,5.72
2023-04-19T12:06:59.476Z,4.00
2023-04-19T12:09:39.392Z,4.00
2023-04-19T12:25:55.429Z,5.95
2023-04-19T12:28:25.385Z,7.07
2023-04-19T12:31:21.004Z,4.90
2023-04-19T12:33:48.340Z,5.53
2023-04-19T12:36:16.336Z,7.88
2023-04-19T12:41:36.605Z,6.13
2023-04-19T12:44:06.274Z,6.55
2023-04-19T12:46:41.647Z,5.90
2023-04-19T12:49:23.241Z,8.40
2023-04-19T12:51:57.073Z,6.60
2023-04-19T12:54:30.021Z,7.45
2023-04-19T12:56:58.940Z,5.60
2023-04-19T12:59:27.258Z,9.02
2023-04-19T13:29:45.333Z,4.55
2023-04-19T13:36:03.930Z,6.57
2023-04-19T13:38:50.852Z,5.15
2023-04-19T13:48:35.731Z,5.43
2023-04-19T14:01:54.060Z,6.45
2023-04-19T14:07:21.174Z,5.22
2023-04-19T14:29:54.270Z,6.80
2023-04-19T14:56:57.396Z,6.88
2023-04-19T15:41:20.735Z,6.40
2023-04-19T15:43:47.270Z,6.95
2023-04-19T15:46:14.323Z,7.18
2023-04-19T15:51:35.197Z,6.38
2023-04-19T15:54:01.766Z,6.25
2023-04-19T15:56:28.358Z,10.23
2023-04-19T15:58:54.834Z,5.80
2023-04-19T16:01:21.337Z,7.03
2023-04-19T16:03:48.060Z,6.57
2023-04-19T16:06:14.641Z,6.22
2023-04-19T16:08:41.151Z,9.57
2023-04-19T16:11:07.739Z,6.70
2023-04-19T16:13:34.239Z,8.25
2023-04-19T16:16:01.128Z,6.93
2023-04-19T16:18:27.698Z,7.10
2023-04-19T16:20:54.587Z,7.72
2023-04-19T16:23:21.401Z,6.82
2023-04-19T16:25:47.946Z,8.15
2023-04-19T16:28:14.466Z,6.60
2023-04-19T16:30:40.979Z,6.22
2023-04-19T16:33:07.551Z,5.93
2023-04-19T16:35:34.131Z,7.60
2023-04-19T16:38:00.661Z,8.13
2023-04-19T16:40:27.246Z,5.80
2023-04-19T16:42:53.720Z,5.85
2023-04-19T16:45:20.247Z,7.10
2023-04-19T16:47:46.998Z,6.45
2023-04-19T16:50:13.942Z,5.22
2023-04-19T16:52:40.701Z,4.88
2023-04-19T16:55:07.808Z,6.03
2023-04-19T16:57:34.416Z,7.00
2023-04-19T17:00:00.907Z,5.75
2023-04-19T17:02:27.673Z,6.57
2023-04-19T17:04:54.506Z,6.82
2023-04-19T17:07:21.068Z,5.32
2023-04-19T17:09:47.637Z,5.25
2023-04-19T17:12:14.234Z,4.93
2023-04-19T17:14:40.748Z,5.75
2023-04-19T17:17:08.151Z,4.93
2023-04-19T17:19:36.431Z,4.85
2023-04-19T17:22:02.942Z,5.65
2023-04-19T17:24:29.449Z,7.05
2023-04-19T17:26:56.002Z,5.20
2023-04-19T17:29:22.524Z,3.83
2023-04-19T17:31:49.097Z,5.18
2023-04-19T17:34:15.748Z,4.20
2023-04-19T17:36:42.279Z,4.90
2023-04-19T17:39:08.788Z,6.03
2023-04-19T17:41:35.275Z,5.45
2023-04-19T17:44:01.851Z,4.95
2023-04-19T17:46:28.410Z,4.20
2023-04-19T17:48:54.882Z,4.72
2023-04-19T17:51:21.482Z,4.05
2023-04-19T17:53:47.977Z,5.97
2023-04-19T17:56:14.449Z,4.72
2023-04-19T17:58:40.974Z,5.07
2023-04-19T18:01:07.515Z,4.60
2023-04-19T18:03:34.092Z,4.03
2023-04-19T18:06:00.637Z,4.72
2023-04-19T18:08:27.128Z,5.13
2023-04-19T18:10:53.708Z,4.32
2023-04-19T18:13:20.213Z,4.55
2023-04-19T18:15:46.718Z,4.63
2023-04-19T18:18:13.231Z,3.95
2023-04-19T18:20:39.737Z,5.30
2023-04-19T18:23:06.252Z,5.15
2023-04-19T18:25:32.735Z,4.13
2023-04-19T18:27:59.237Z,7.30
2023-04-19T18:30:25.809Z,6.25
2023-04-19T18:32:52.331Z,5.20
2023-04-19T18:35:18.950Z,7.57
2023-04-19T18:37:45.447Z,4.00
2023-04-19T18:40:12.266Z,5.10
2023-04-19T18:42:39.154Z,6.60
2023-04-19T18:45:06.235Z,4.60
2023-04-19T18:47:32.819Z,6.55
2023-04-19T18:50:05.374Z,4.82
2023-04-19T18:52:34.632Z,5.07
2023-04-19T18:55:01.237Z,5.28
2023-04-19T18:57:28.106Z,4.97
2023-04-19T18:59:57.553Z,7.60
2023-04-19T19:02:24.317Z,7.25
2023-04-19T19:04:57.838Z,5.72
2023-04-19T19:10:01.073Z,4.40
2023-04-19T19:12:28.496Z,5.35
2023-04-19T19:14:55.009Z,8.10
2023-04-19T19:17:22.235Z,5.38
2023-04-19T19:19:48.911Z,6.35
2023-04-19T19:22:25.795Z,6.47
2023-04-19T19:24:54.649Z,5.88
2023-04-19T19:27:21.157Z,5.80
2023-04-19T19:29:47.650Z,5.95
2023-04-19T19:32:14.205Z,4.65
2023-04-19T19:34:53.777Z,4.43
2023-04-19T19:37:21.859Z,5.32
2023-04-19T19:39:48.469Z,4.82
2023-04-19T19:42:18.739Z,6.78
2023-04-19T19:44:45.393Z,6.63
2023-04-19T19:47:13.200Z,4.88
2023-04-19T19:49:55.209Z,6.13
2023-04-19T19:52:27.581Z,4.63
2023-04-19T19:54:54.183Z,4.93
2023-04-19T19:58:14.170Z,5.10
2023-04-19T20:00:31.819Z,6.32
2023-04-19T20:02:56.472Z,7.22
2023-04-19T20:05:24.351Z,5.15
2023-04-19T20:10:20.685Z,5.70
2023-04-19T20:12:47.575Z,4.95
2023-04-19T20:15:14.154Z,4.75
2023-04-19T20:17:40.971Z,5.75
2023-04-19T20:20:08.489Z,4.72
2023-04-19T20:22:35.598Z,5.60
2023-04-19T20:25:02.177Z,5.88
2023-04-19T20:27:28.746Z,6.30
2023-04-19T20:29:56.181Z,5.43
2023-04-19T20:32:22.839Z,6.32
2023-04-19T20:34:49.469Z,7.72
2023-04-19T20:37:15.957Z,4.80
2023-04-19T20:39:42.485Z,5.03
2023-04-19T20:42:09.085Z,4.28
2023-04-19T20:44:35.573Z,5.75
2023-04-19T20:47:02.303Z,6.70
2023-04-19T20:49:28.828Z,5.43
2023-04-19T20:51:55.383Z,6.28
2023-04-19T20:54:21.927Z,5.50
2023-04-19T20:56:48.517Z,4.20
2023-04-19T20:59:15.289Z,8.07
2023-04-19T21:01:42.098Z,6.75
2023-04-19T21:04:08.823Z,5.22
2023-04-19T21:06:35.452Z,7.72
2023-04-19T21:09:01.930Z,7.40
2023-04-19T21:11:28.425Z,4.72
2023-04-19T21:13:54.941Z,5.65
2023-04-19T21:16:21.493Z,9.10
2023-04-19T21:18:47.986Z,7.57
2023-04-19T21:21:14.496Z,7.70
2023-04-19T21:23:40.958Z,5.05
2023-04-19T21:26:07.553Z,8.00
2023-04-19T21:28:34.756Z,6.38
2023-04-19T21:31:01.293Z,5.80
2023-04-19T21:33:27.996Z,6.43
2023-04-19T21:35:54.580Z,11.35
2023-04-19T21:38:21.070Z,6.78
2023-04-19T21:40:47.582Z,7.15
2023-04-19T21:43:14.081Z,8.60
2023-04-19T21:45:40.590Z,6.45
2023-04-19T21:48:07.127Z,9.07
2023-04-19T21:50:33.861Z,7.07
2023-04-19T21:53:00.438Z,4.50
2023-04-19T21:55:27.069Z,8.07
2023-04-19T21:57:53.615Z,6.82
2023-04-19T22:00:20.203Z,6.97
2023-04-19T22:02:46.873Z,7.57
2023-04-19T22:05:13.546Z,7.90
2023-04-19T22:07:40.032Z,8.18
2023-04-19T22:10:07.491Z,12.27
2023-04-19T22:12:34.247Z,7.10
2023-04-19T22:15:01.571Z,8.82
2023-04-19T22:17:29.313Z,5.68
2023-04-19T22:19:55.903Z,6.20
2023-04-19T22:22:22.408Z,5.82
2023-04-19T22:24:57.569Z,6.57
2023-04-19T22:27:25.095Z,9.05
2023-04-19T22:29:51.633Z,7.50
2023-04-19T22:32:18.457Z,9.80
2023-04-19T22:34:45.126Z,7.70
2023-04-19T22:37:11.651Z,4.63
2023-04-19T22:39:38.143Z,6.45
2023-04-19T22:42:04.765Z,6.05
2023-04-19T22:44:31.320Z,6.22
2023-04-19T22:46:59.777Z,6.93
2023-04-19T22:49:26.364Z,5.55
2023-04-19T22:51:52.943Z,5.85
2023-04-19T22:54:19.548Z,5.95
2023-04-19T22:56:46.067Z,5.18
2023-04-19T22:59:13.062Z,7.70
2023-04-19T23:01:39.848Z,6.85
2023-04-19T23:04:06.359Z,6.93
2023-04-19T23:06:32.891Z,6.72
2023-04-19T23:08:59.545Z,5.90
2023-04-19T23:11:26.401Z,7.30
2023-04-19T23:13:52.940Z,7.45
2023-04-19T23:16:19.817Z,5.90
2023-04-19T23:34:12.536Z,6.82
2023-04-19T23:36:39.050Z,5.68
2023-04-19T23:39:05.565Z,6.63
2023-04-19T23:41:32.077Z,6.85
2023-04-19T23:43:58.558Z,8.18
2023-04-19T23:46:25.115Z,4.78
2023-04-19T23:48:52.553Z,5.50
2023-04-19T23:51:19.091Z,5.68
2023-04-19T23:53:46.699Z,6.38
2023-04-19T23:56:13.186Z,6.35
2023-04-19T23:58:39.791Z,5.32
